createdAt,value
2023-05-03T00:00:13.890Z,1.40
2023-05-03T00:05:15.326Z,1.70
2023-05-03T00:10:16.701Z,1.75
2023-05-03T00:15:16.035Z,1.85
2023-05-03T00:20:19.518Z,1.95
2023-05-03T00:25:18.496Z,2.20
2023-05-03T00:30:27.600Z,2.10
2023-05-03T00:35:28.508Z,1.95
2023-05-03T00:40:32.202Z,2.42
2023-05-03T00:45:33.970Z,2.08
2023-05-03T00:50:36.967Z,2.30
2023-05-03T00:55:37.649Z,2.30
2023-05-03T01:00:37.283Z,2.50
2023-05-03T01:05:51.451Z,2.47
2023-05-03T01:10:55.977Z,2.60
2023-05-03T01:16:15.733Z,2.20
2023-05-03T01:21:26.192Z,2.15
2023-05-03T01:26:35.003Z,2.83
2023-05-03T01:31:43.005Z,2.67
2023-05-03T01:36:49.754Z,3.05
2023-05-03T01:41:56.919Z,3.20
2023-05-03T01:46:58.484Z,2.70
2023-05-03T01:52:01.105Z,3.42
2023-05-03T01:57:10.429Z,3.28
2023-05-03T02:02:12.599Z,3.10
2023-05-03T02:07:14.151Z,3.47
2023-05-03T02:12:15.833Z,3.72
2023-05-03T02:17:22.115Z,5.65
2023-05-03T02:22:24.249Z,3.33
2023-05-03T02:27:26.392Z,3.53
2023-05-03T02:32:24.456Z,3.20
2023-05-03T02:37:24.182Z,3.38
2023-05-03T02:42:27.861Z,3.67
2023-05-03T02:47:30.099Z,3.63
2023-05-03T02:52:35.217Z,3.65
2023-05-03T02:57:50.797Z,3.47
2023-05-03T03:02:52.240Z,3.90
2023-05-03T03:07:54.486Z,3.63
2023-05-03T03:13:12.869Z,3.80
2023-05-03T03:18:13.031Z,4.25
2023-05-03T03:35:23.212Z,4.38
2023-05-03T03:40:27.734Z,4.68
2023-05-03T03:45:38.681Z,4.78
2023-05-03T03:50:38.092Z,5.88
2023-05-03T03:55:36.351Z,4.57
2023-05-03T04:00:39.879Z,4.85
2023-05-03T04:05:44.643Z,4.78
2023-05-03T04:10:45.083Z,4.97
2023-05-03T04:15:44.298Z,5.43
2023-05-03T04:20:47.716Z,5.78
2023-05-03T04:25:52.821Z,6.90
2023-05-03T04:30:55.353Z,6.22
2023-05-03T04:36:00.331Z,7.40
2023-05-03T04:41:28.023Z,7.03
2023-05-03T04:46:34.916Z,6.82
2023-05-03T04:51:34.116Z,7.13
2023-05-03T04:56:38.216Z,7.00
2023-05-03T05:01:47.421Z,7.68
2023-05-03T05:06:47.389Z,8.20
2023-05-03T05:12:00.401Z,6.82
2023-05-03T05:17:08.453Z,7.00
2023-05-03T05:22:08.661Z,6.97
2023-05-03T05:27:23.677Z,8.18
2023-05-03T05:32:31.605Z,6.97
2023-05-03T05:37:33.198Z,8.10
2023-05-03T05:42:52.046Z,13.15
2023-05-03T05:48:04.151Z,7.32
2023-05-03T05:53:15.876Z,8.00
2023-05-03T05:58:20.848Z,8.32
2023-05-03T06:03:46.361Z,7.30
2023-05-03T06:08:51.907Z,7.97
2023-05-03T06:13:54.254Z,7.75
2023-05-03T06:18:55.172Z,8.00
2023-05-03T06:23:54.361Z,7.97
2023-05-03T06:29:06.258Z,8.93
2023-05-03T06:34:16.834Z,8.30
2023-05-03T06:39:15.366Z,8.02
2023-05-03T06:44:19.581Z,8.63
2023-05-03T06:49:31.812Z,8.55
2023-05-03T06:54:34.896Z,8.02
2023-05-03T06:59:35.995Z,7.87
2023-05-03T07:04:34.707Z,8.20
2023-05-03T07:09:43.209Z,7.60
2023-05-03T07:14:46.228Z,11.23
2023-05-03T07:19:59.560Z,7.03
2023-05-03T07:25:05.458Z,6.22
2023-05-03T07:30:24.778Z,6.65
2023-05-03T07:35:30.833Z,6.70
2023-05-03T07:46:00.557Z,7.30
2023-05-03T07:51:16.398Z,7.40
2023-05-03T07:56:15.701Z,6.68
2023-05-03T08:01:23.372Z,6.18
2023-05-03T08:06:25.316Z,6.18
2023-05-03T08:11:37.637Z,5.22
2023-05-03T08:16:48.828Z,4.10
2023-05-03T08:21:55.663Z,4.97
2023-05-03T08:26:55.630Z,5.05
2023-05-03T08:32:06.126Z,4.10
2023-05-03T08:37:08.845Z,4.20
2023-05-03T08:42:16.472Z,3.40
2023-05-03T08:47:18.254Z,3.92
2023-05-03T08:52:18.524Z,2.97
2023-05-03T08:57:37.378Z,2.08
2023-05-03T09:02:49.264Z,2.35
2023-05-03T09:08:10.997Z,2.78
2023-05-03T09:13:14.444Z,3.08
2023-05-03T09:18:34.328Z,2.05
2023-05-03T09:23:35.397Z,3.75
2023-05-03T09:29:14.864Z,2.40
2023-05-03T09:34:54.037Z,3.17
2023-05-03T09:40:09.252Z,2.40
2023-05-03T09:45:10.848Z,2.38
2023-05-03T09:50:18.166Z,2.42
2023-05-03T09:55:25.036Z,2.40
2023-05-03T10:00:25.830Z,3.17
2023-05-03T10:05:34.725Z,2.70
2023-05-03T10:10:37.689Z,2.50
2023-05-03T10:15:40.506Z,2.50
2023-05-03T10:20:58.090Z,2.65
2023-05-03T10:26:18.118Z,2.83
2023-05-03T10:31:40.799Z,1.73
2023-05-03T10:36:49.824Z,1.77
2023-05-03T10:42:24.865Z,2.17
2023-05-03T10:47:28.702Z,2.25
2023-05-03T10:52:38.584Z,2.00
2023-05-03T10:57:55.089Z,2.15
2023-05-03T11:02:55.090Z,2.05
2023-05-03T11:07:59.997Z,2.20
2023-05-03T11:13:30.127Z,1.98
2023-05-03T11:18:33.917Z,4.38
2023-05-03T11:23:42.440Z,2.17
2023-05-03T11:28:43.096Z,1.70
2023-05-03T11:33:48.227Z,1.80
2023-05-03T11:38:47.268Z,2.58
2023-05-03T11:44:00.798Z,1.73
2023-05-03T11:49:10.285Z,2.10
2023-05-03T11:55:12.766Z,4.20
2023-05-03T12:00:18.032Z,1.98
2023-05-03T12:05:18.293Z,1.85
2023-05-03T12:16:12.624Z,2.53
2023-05-03T12:26:25.575Z,1.45
2023-05-03T12:31:29.127Z,3.38
2023-05-03T12:36:37.127Z,2.22
2023-05-03T12:47:01.080Z,1.83
2023-05-03T12:52:25.905Z,1.92
2023-05-03T12:57:27.363Z,1.80
2023-05-03T13:12:40.419Z,1.60
2023-05-03T13:17:45.254Z,1.67
2023-05-03T13:22:48.646Z,1.88
2023-05-03T13:27:55.118Z,1.52
2023-05-03T13:33:14.052Z,1.70
2023-05-03T13:38:14.789Z,1.20
2023-05-03T13:43:16.687Z,1.75
2023-05-03T13:48:18.959Z,2.00
2023-05-03T13:53:23.289Z,2.25
2023-05-03T13:58:36.544Z,2.17
2023-05-03T14:03:46.324Z,5.72
2023-05-03T14:08:45.953Z,1.75
2023-05-03T14:13:57.960Z,1.40
2023-05-03T14:18:58.440Z,3.15
2023-05-03T14:23:57.364Z,2.10
2023-05-03T14:29:10.377Z,2.50
2023-05-03T14:39:42.894Z,2.38
2023-05-03T14:44:46.050Z,1.95
2023-05-03T14:49:44.968Z,2.15
2023-05-03T14:54:46.567Z,1.38
2023-05-03T14:59:50.258Z,1.90
2023-05-03T15:04:56.329Z,2.08
2023-05-03T15:09:55.089Z,2.05
2023-05-03T15:14:57.748Z,2.13
2023-05-03T15:19:55.160Z,2.00
2023-05-03T15:24:57.342Z,2.10
2023-05-03T15:29:56.608Z,2.25
2023-05-03T15:34:58.227Z,2.58
2023-05-03T15:40:02.583Z,2.50
2023-05-03T15:45:04.816Z,2.38
2023-05-03T15:50:06.476Z,2.25
2023-05-03T15:55:06.982Z,1.40
2023-05-03T16:00:22.728Z,2.88
2023-05-03T16:05:27.877Z,2.60
2023-05-03T16:10:43.741Z,2.00
2023-05-03T16:15:50.492Z,2.15
2023-05-03T16:20:54.556Z,2.35
2023-05-03T16:25:53.654Z,1.90
2023-05-03T16:30:56.312Z,2.55
2023-05-03T16:36:00.466Z,2.90
2023-05-03T16:41:04.302Z,1.58
2023-05-03T16:46:36.686Z,2.55
2023-05-03T16:51:35.469Z,2.70
2023-05-03T16:56:34.112Z,1.83
2023-05-03T17:01:37.040Z,3.15
2023-05-03T17:06:36.979Z,2.85
2023-05-03T17:11:39.980Z,2.22
2023-05-03T17:16:55.183Z,1.92
2023-05-03T17:22:09.800Z,2.92
2023-05-03T17:27:38.833Z,2.22
2023-05-03T17:32:45.415Z,2.00
2023-05-03T17:37:47.085Z,3.05
2023-05-03T17:43:03.706Z,2.00
2023-05-03T17:48:48.172Z,2.00
2023-05-03T17:53:38.151Z,1.90
2023-05-03T17:58:39.421Z,2.20
2023-05-03T18:03:45.771Z,2.72
2023-05-03T18:08:57.490Z,3.13
2023-05-03T18:13:56.377Z,2.67
2023-05-03T18:18:55.289Z,2.00
2023-05-03T18:24:08.864Z,3.35
2023-05-03T18:29:06.559Z,2.38
2023-05-03T18:34:05.673Z,1.98
2023-05-03T18:39:05.245Z,2.38
2023-05-03T18:44:18.210Z,2.40
2023-05-03T18:49:17.460Z,2.90
2023-05-03T18:54:30.103Z,3.13
2023-05-03T18:59:33.300Z,5.40
2023-05-03T19:04:34.038Z,3.75
2023-05-03T19:15:45.444Z,7.10
2023-05-03T19:20:58.401Z,2.58
2023-05-03T19:26:07.520Z,2.40
2023-05-03T19:31:19.729Z,2.10
2023-05-03T19:42:09.544Z,2.60
2023-05-03T19:47:14.677Z,2.95
2023-05-03T19:52:33.502Z,2.20
2023-05-03T19:57:47.536Z,2.72
2023-05-03T20:02:58.454Z,2.53
2023-05-03T20:14:19.324Z,2.45
2023-05-03T20:19:19.143Z,2.63
2023-05-03T20:24:27.015Z,3.45
2023-05-03T20:29:31.697Z,2.15
2023-05-03T20:34:33.677Z,2.08
2023-05-03T20:39:36.840Z,2.42
2023-05-03T20:44:40.380Z,2.63
2023-05-03T20:49:40.091Z,2.22
2023-05-03T20:54:45.385Z,2.72
2023-05-03T20:59:46.921Z,2.67
2023-05-03T21:04:46.856Z,2.92
2023-05-03T21:09:48.202Z,3.05
2023-05-03T21:14:51.209Z,2.80
2023-05-03T21:19:54.566Z,3.70
2023-05-03T21:25:15.820Z,3.43
2023-05-03T21:30:15.736Z,3.40
2023-05-03T21:35:17.650Z,3.28
2023-05-03T21:40:16.894Z,3.30
2023-05-03T21:45:15.207Z,3.47
2023-05-03T21:50:13.981Z,3.78
2023-05-03T21:55:18.818Z,2.78
2023-05-03T22:00:26.031Z,3.35
2023-05-03T22:05:28.692Z,2.75
2023-05-03T22:10:30.488Z,2.90
2023-05-03T22:15:37.619Z,3.50
2023-05-03T22:20:52.728Z,3.40
2023-05-03T22:25:55.048Z,2.90
2023-05-03T22:31:19.030Z,3.40
2023-05-03T22:36:23.484Z,3.45
2023-05-03T22:41:37.109Z,3.75
2023-05-03T22:46:39.934Z,3.28
2023-05-03T22:51:47.514Z,4.18
2023-05-03T22:56:53.386Z,3.72
2023-05-03T23:01:58.047Z,4.35
2023-05-03T23:07:04.434Z,4.40
2023-05-03T23:12:09.696Z,4.63
2023-05-03T23:17:14.350Z,3.97
2023-05-03T23:22:19.467Z,4.25
2023-05-03T23:27:30.800Z,4.25
2023-05-03T23:32:32.703Z,4.50
2023-05-03T23:37:38.708Z,4.03
2023-05-03T23:42:39.840Z,3.40
2023-05-03T23:47:38.576Z,4.30
2023-05-03T23:52:40.806Z,3.85
2023-05-03T23:57:43.289Z,4.18
